KBFM

Mobile Downtown Airport

Mobile, Alabama, USA
METAR KBFM 221753Z 14017KT 7SM -RA SCT055 SCT065 OVC090 22/22 A2993 RMK AO2 PRESFR SLP134 P0004 60020 T02220217 10222 20206 58017
Observed Flight Rules
Apr-22 @ 17:53 UTC (22 minutes ago) Visual Flight Rules
Wind Visibility Clouds Conditions
140° at 17 knots 7 miles
  • Scattered at 5,500' AGL
  • Scattered at 6,500' AGL
  • Overcast at 9,000' AGL
  • Light Rain
Temperatures Readings Precipitation
Current 22°C / 72°F
Dewpoint 22°C / 72°F
Humidity 100%
Altimeter 29.93" Hg
Pressure 1013.4 hPa
Elevation 20
Current Rain 0.04
METAR KBFM 221753Z 14017KT 7SM -RA SCT055 SCT065 OVC090 22/22 A2993 RMK AO2 PRESFR SLP134 P0004 60020 T02220217 10222 20206 58017
Observed Flight Rules
Apr-22 @ 17:53 UTC
(22 minutes ago)
VFR
Wind Visibility
140° at 17 knots 7 miles
Clouds
  • Scattered at 5,500' AGL
  • Scattered at 6,500' AGL
  • Overcast at 9,000' AGL
Conditions
  • Light Rain
Temperature Dewpoint
22°C / 72°F 22°C / 72°F
Humidity Altimeter Pressure
100% 29.93" Hg 1013.4 hPa
Current Rain
0.04